Time;durP1;ratioP1;P1;durP2;ratioP2;P2;SDS_P1;SDS_P2;PMS_P1;PMS_P2;Temp;Humidity;BMP_temperature;BMP_pressure;BME280_temperature;BME280_humidity;BME280_pressure;Samples;Min_cycle;Max_cycle;Signal;HPM_P1;HPM_P2
2023/11/06 00:01:37;;;;;;;0.20;0.20;;;;;;;9.98;66.72;98490.81;4410067;32;33488;-90
2023/11/06 00:04:05;;;;;;;0.82;0.50;;;;;;;9.97;66.68;98494.41;4403496;32;34001;-90
2023/11/06 00:06:33;;;;;;;0.30;0.30;;;;;;;10.29;65.50;98498.63;4418339;32;33127;-89
2023/11/06 00:09:03;;;;;;;4.45;0.90;;;;;;;10.08;65.81;98500.78;4399095;32;32749;-90
2023/11/06 00:11:31;;;;;;;0.65;0.65;;;;;;;9.92;66.31;98509.66;4416474;32;32139;-91
2023/11/06 00:13:59;;;;;;;0.28;0.28;;;;;;;9.86;67.04;98507.37;4411364;32;33419;-90
2023/11/06 00:16:28;;;;;;;0.20;0.20;;;;;;;10.01;66.49;98510.84;4397499;32;33892;-91
2023/11/06 00:18:56;;;;;;;0.82;0.65;;;;;;;9.91;66.85;98521.13;4421620;32;33833;-90
2023/11/06 00:21:24;;;;;;;0.60;0.50;;;;;;;9.98;66.66;98522.47;4417984;32;33379;-89
2023/11/06 00:23:55;;;;;;;0.17;0.17;;;;;;;9.97;66.21;98531.31;4418483;32;32800;-89
2023/11/06 00:26:24;;;;;;;1.58;0.82;;;;;;;10.06;65.90;98529.03;4416396;32;33461;-89
2023/11/06 00:28:53;;;;;;;1.90;1.80;;;;;;;9.98;66.91;98533.00;4384652;32;34058;-89
2023/11/06 00:31:21;;;;;;;0.75;0.73;;;;;;;10.28;66.00;98540.00;4396711;32;32036;-89
2023/11/06 00:33:51;;;;;;;1.37;1.12;;;;;;;10.07;66.30;98547.44;4415275;32;32893;-90
2023/11/06 00:36:23;;;;;;;0.75;0.55;;;;;;;10.05;67.13;98559.00;4420400;32;33200;-89
2023/11/06 00:38:51;;;;;;;0.40;0.40;;;;;;;9.90;67.64;98566.06;4424585;32;33146;-90
2023/11/06 00:41:20;;;;;;;0.17;0.17;;;;;;;10.01;67.51;98563.59;4396401;32;34449;-88
2023/11/06 00:43:48;;;;;;;0.68;0.55;;;;;;;10.05;67.10;98561.63;4409759;32;33384;-89
2023/11/06 00:46:16;;;;;;;1.20;0.85;;;;;;;10.34;66.67;98565.97;4429383;32;33692;-89
2023/11/06 00:48:44;;;;;;;0.32;0.32;;;;;;;10.16;67.36;98556.53;4408200;32;34760;-89
2023/11/06 00:51:12;;;;;;;0.40;0.40;;;;;;;10.04;67.35;98566.06;4408706;32;33181;-89
2023/11/06 00:53:40;;;;;;;0.60;0.60;;;;;;;10.16;67.84;98577.63;4396200;32;32614;-88
2023/11/06 00:56:08;;;;;;;1.20;1.10;;;;;;;10.63;65.80;98592.34;4421013;32;33810;-88
2023/11/06 00:58:36;;;;;;;1.25;0.80;;;;;;;10.29;68.35;98599.72;4416751;32;34598;-87
2023/11/06 01:01:05;;;;;;;0.45;0.10;;;;;;;10.36;68.30;98611.59;4408905;32;32402;-88
2023/11/06 01:03:33;;;;;;;0.35;0.35;;;;;;;10.45;68.75;98607.56;4408915;32;32984;-88
2023/11/06 01:06:01;;;;;;;0.90;0.77;;;;;;;10.37;69.20;98607.19;4395101;32;33135;-88
2023/11/06 01:08:30;;;;;;;1.80;1.17;;;;;;;10.40;69.61;98615.75;4421403;32;32722;-88
2023/11/06 01:10:58;;;;;;;1.15;0.60;;;;;;;10.32;70.05;98610.09;4414691;32;32566;-89
2023/11/06 01:13:26;;;;;;;0.40;0.40;;;;;;;10.55;70.09;98621.03;4412155;32;33843;-89
2023/11/06 01:15:54;;;;;;;0.47;0.28;;;;;;;10.66;70.39;98623.84;4410810;32;151617;-89
2023/11/06 01:18:23;;;;;;;0.43;0.43;;;;;;;10.71;71.07;98635.78;4430937;32;33994;-89
2023/11/06 01:20:51;;;;;;;0.00;0.00;;;;;;;10.75;72.14;98644.37;4404627;32;33042;-89
2023/11/06 01:23:19;;;;;;;0.20;0.15;;;;;;;10.83;72.62;98657.97;4425197;32;32686;-90
2023/11/06 01:25:49;;;;;;;0.60;0.57;;;;;;;11.00;72.19;98668.28;4407647;32;32925;-91
2023/11/06 01:28:17;;;;;;;0.75;0.75;;;;;;;11.03;72.04;98670.75;4405123;32;32708;-90
2023/11/06 01:30:45;;;;;;;0.00;0.00;;;;;;;11.42;71.82;98679.69;4416001;32;32239;-90
2023/11/06 01:33:13;;;;;;;0.00;0.00;;;;;;;11.64;71.48;98697.66;4411211;32;32795;-90
2023/11/06 01:35:41;;;;;;;0.10;0.10;;;;;;;11.81;70.82;98688.59;4419798;32;32941;-90
2023/11/06 01:38:09;;;;;;;0.10;0.10;;;;;;;11.85;70.45;98702.50;4406619;32;34277;-90
2023/11/06 01:40:37;;;;;;;6.68;0.45;;;;;;;12.05;70.23;98700.22;4399149;32;32465;-90
2023/11/06 01:43:06;;;;;;;0.00;0.00;;;;;;;12.37;68.99;98722.81;4428436;32;33667;-90
2023/11/06 01:45:36;;;;;;;0.47;0.32;;;;;;;12.32;69.11;98720.47;4392091;32;34162;-90
2023/11/06 01:48:07;;;;;;;0.93;0.22;;;;;;;12.33;68.83;98727.47;4406328;32;33563;-90
2023/11/06 01:50:35;;;;;;;1.35;1.27;;;;;;;12.22;69.17;98730.84;4413736;32;33295;-90
2023/11/06 01:53:08;;;;;;;0.52;0.52;;;;;;;12.20;68.79;98738.06;4392933;32;32735;-90
2023/11/06 01:55:38;;;;;;;0.13;0.13;;;;;;;12.27;68.51;98736.66;4415330;32;33015;-91
2023/11/06 01:58:06;;;;;;;3.03;0.80;;;;;;;12.30;68.28;98748.88;4403876;32;31977;-90
2023/11/06 02:00:40;;;;;;;0.30;0.15;;;;;;;12.36;67.85;98732.56;4412413;32;32632;-91
2023/11/06 02:03:08;;;;;;;0.15;0.15;;;;;;;12.52;67.55;98741.13;4416421;32;32541;-88
2023/11/06 02:05:38;;;;;;;1.27;0.55;;;;;;;12.62;66.72;98730.75;4410723;32;32998;-88
2023/11/06 02:08:06;;;;;;;0.10;0.10;;;;;;;12.47;66.97;98731.81;4403947;32;33654;-88
2023/11/06 02:10:34;;;;;;;1.05;0.85;;;;;;;12.38;67.01;98746.53;4417386;32;33367;-88
2023/11/06 02:13:02;;;;;;;0.17;0.17;;;;;;;12.57;66.71;98739.00;4411460;32;32566;-87
2023/11/06 02:15:30;;;;;;;0.20;0.20;;;;;;;12.68;66.17;98740.94;4405274;32;34974;-89
2023/11/06 02:17:59;;;;;;;0.00;0.00;;;;;;;12.66;65.69;98744.66;4390163;32;34094;-89
2023/11/06 02:20:28;;;;;;;0.30;0.30;;;;;;;12.92;64.35;98746.34;4409492;32;32894;-89
2023/11/06 02:23:01;;;;;;;0.20;0.20;;;;;;;12.67;65.11;98749.81;4404382;32;32795;-89
2023/11/06 02:25:30;;;;;;;0.15;0.15;;;;;;;12.84;64.27;98745.19;4410017;32;32227;-91
2023/11/06 02:27:58;;;;;;;0.10;0.10;;;;;;;12.78;64.09;98754.41;4423541;32;34097;-89
2023/11/06 02:30:26;;;;;;;0.80;0.80;;;;;;;12.71;63.97;98758.41;4405830;32;32866;-89
2023/11/06 02:32:54;;;;;;;0.13;0.13;;;;;;;12.59;63.97;98780.47;4425918;32;32821;-89
2023/11/06 02:35:23;;;;;;;0.43;0.43;;;;;;;12.59;64.23;98777.81;4399074;32;32945;-89
2023/11/06 02:37:52;;;;;;;1.23;0.35;;;;;;;12.21;65.31;98779.44;4420135;32;32499;-89
2023/11/06 02:40:21;;;;;;;0.00;0.00;;;;;;;12.36;65.21;98796.09;4411937;32;33164;-90
2023/11/06 02:42:49;;;;;;;0.30;0.30;;;;;;;12.55;64.09;98799.19;4399267;32;33107;-90
2023/11/06 02:45:17;;;;;;;0.03;0.03;;;;;;;12.46;64.04;98805.09;4417739;32;32936;-91
2023/11/06 02:47:45;;;;;;;0.00;0.00;;;;;;;12.41;63.37;98809.88;4405416;32;32714;-90
2023/11/06 02:50:13;;;;;;;0.30;0.30;;;;;;;12.60;62.16;98820.06;4424036;32;31989;-90
2023/11/06 02:52:42;;;;;;;0.43;0.43;;;;;;;12.59;61.81;98814.88;4407504;32;33884;-90
2023/11/06 02:55:10;;;;;;;0.00;0.00;;;;;;;12.75;60.54;98823.47;4403063;32;33205;-91
2023/11/06 02:57:38;;;;;;;0.00;0.00;;;;;;;12.97;60.43;98807.81;4399774;32;32771;-91
2023/11/06 03:00:07;;;;;;;0.10;0.10;;;;;;;12.91;60.48;98810.84;4424026;32;32576;-91
2023/11/06 03:02:36;;;;;;;0.00;0.00;;;;;;;13.19;59.30;98814.25;4424292;32;33081;-91
2023/11/06 03:05:06;;;;;;;0.00;0.00;;;;;;;13.15;60.17;98820.72;4414562;32;32857;-91
2023/11/06 03:07:34;;;;;;;0.20;0.20;;;;;;;13.21;59.51;98820.31;4406697;32;32648;-91
2023/11/06 03:10:03;;;;;;;0.30;0.15;;;;;;;13.18;59.70;98820.50;4423965;32;32201;-91
2023/11/06 03:12:31;;;;;;;0.45;0.45;;;;;;;13.44;58.74;98822.22;4429721;32;32711;-91
2023/11/06 03:14:59;;;;;;;1.02;0.52;;;;;;;13.47;58.73;98815.84;4414901;32;33984;-91
2023/11/06 03:17:29;;;;;;;0.73;0.73;;;;;;;13.37;58.74;98814.78;4413310;32;32736;-91
2023/11/06 03:19:57;;;;;;;0.95;0.75;;;;;;;13.31;59.49;98821.38;4399534;32;32558;-91
2023/11/06 03:22:25;;;;;;;0.00;0.00;;;;;;;13.36;59.26;98816.59;4422347;32;34227;-90
2023/11/06 03:24:54;;;;;;;0.00;0.00;;;;;;;13.28;59.94;98813.63;4426118;32;33037;-91
2023/11/06 03:27:21;;;;;;;0.08;0.08;;;;;;;12.97;60.70;98807.81;4405805;32;33798;-91
2023/11/06 03:29:50;;;;;;;0.20;0.17;;;;;;;12.91;61.51;98805.56;4399767;32;32693;-90
2023/11/06 03:32:18;;;;;;;0.22;0.22;;;;;;;12.94;61.14;98802.72;4407486;32;34254;-90
2023/11/06 03:34:46;;;;;;;0.00;0.00;;;;;;;13.10;59.56;98810.44;4398179;32;33320;-89
2023/11/06 03:37:15;;;;;;;0.00;0.00;;;;;;;12.87;60.13;98817.34;4423078;32;32756;-91
2023/11/06 03:39:57;;;;;;;0.00;0.00;;;;;;;12.84;60.49;98822.00;4417528;32;32416;-91
2023/11/06 03:42:25;;;;;;;0.00;0.00;;;;;;;13.04;59.48;98824.12;4434396;32;32538;-91
2023/11/06 03:44:53;;;;;;;0.00;0.00;;;;;;;12.90;60.46;98824.22;4412284;32;33053;-91
2023/11/06 03:47:22;;;;;;;0.00;0.00;;;;;;;13.00;59.21;98818.16;4398401;32;32759;-91
2023/11/06 03:49:51;;;;;;;0.00;0.00;;;;;;;12.94;59.34;98831.84;4423942;32;32648;-90
2023/11/06 03:52:19;;;;;;;0.40;0.20;;;;;;;12.98;59.24;98846.59;4412079;32;33733;-91
2023/11/06 03:54:47;;;;;;;0.00;0.00;;;;;;;13.07;58.87;98845.97;4411066;32;32846;-91
2023/11/06 03:57:15;;;;;;;0.00;0.00;;;;;;;13.17;57.69;98859.44;4411261;32;32793;-91
2023/11/06 03:59:43;;;;;;;0.00;0.00;;;;;;;13.10;56.92;98849.34;4412947;32;32381;-91
2023/11/06 04:02:11;;;;;;;0.00;0.00;;;;;;;13.35;56.54;98845.88;4414927;32;33193;-89
2023/11/06 04:04:39;;;;;;;0.00;0.00;;;;;;;13.29;56.87;98849.78;4406358;32;33759;-89
2023/11/06 04:07:06;;;;;;;0.00;0.00;;;;;;;13.07;56.24;98845.97;4416176;32;33900;-89
2023/11/06 04:09:34;;;;;;;0.00;0.00;;;;;;;13.30;55.46;98851.50;4424335;32;33364;-90
2023/11/06 04:12:03;;;;;;;0.00;0.00;;;;;;;13.44;55.78;98851.38;4398335;32;33012;-89
2023/11/06 04:14:31;;;;;;;2.20;1.00;;;;;;;13.21;56.19;98849.47;4410701;32;32696;-90
2023/11/06 04:17:02;;;;;;;0.00;0.00;;;;;;;13.44;54.80;98859.34;4413477;32;32763;-90
2023/11/06 04:19:31;;;;;;;0.80;0.80;;;;;;;13.42;54.44;98861.25;4416808;32;33192;-90
2023/11/06 04:21:59;;;;;;;0.00;0.00;;;;;;;13.35;54.63;98869.75;4421778;32;32756;-90
2023/11/06 04:24:27;;;;;;;0.00;0.00;;;;;;;13.66;53.90;98873.72;4396115;32;32577;-90
2023/11/06 04:26:55;;;;;;;0.00;0.00;;;;;;;13.87;53.13;98887.28;4427102;32;34164;-90
2023/11/06 04:29:23;;;;;;;0.00;0.00;;;;;;;13.35;54.31;98886.50;4421507;32;33475;-91
2023/11/06 04:31:51;;;;;;;0.00;0.00;;;;;;;13.54;53.38;98894.03;4409230;32;32739;-89
2023/11/06 04:34:20;;;;;;;0.00;0.00;;;;;;;13.74;53.86;98905.88;4418162;32;34383;-90
2023/11/06 04:36:48;;;;;;;0.13;0.13;;;;;;;13.68;53.34;98906.31;4396426;32;33066;-90
2023/11/06 04:39:16;;;;;;;0.00;0.00;;;;;;;13.63;54.29;98905.78;4426089;32;32116;-90
2023/11/06 04:41:45;;;;;;;0.00;0.00;;;;;;;13.42;53.80;98919.56;4408945;32;33668;-89
2023/11/06 04:44:13;;;;;;;0.00;0.00;;;;;;;13.64;52.83;98923.41;4395781;32;33023;-89
2023/11/06 04:46:41;;;;;;;0.00;0.00;;;;;;;13.72;52.26;98923.69;4395767;32;32845;-89
2023/11/06 04:49:11;;;;;;;0.00;0.00;;;;;;;13.71;52.56;98929.94;4408689;32;32154;-89
2023/11/06 04:51:39;;;;;;;0.00;0.00;;;;;;;14.17;51.48;98938.16;4408733;32;33785;-89
2023/11/06 04:54:07;;;;;;;0.00;0.00;;;;;;;13.74;51.91;98943.00;4420507;32;33532;-89
2023/11/06 04:56:41;;;;;;;0.00;0.00;;;;;;;13.66;52.72;98948.84;4420781;32;33941;-89
2023/11/06 04:59:09;;;;;;;0.00;0.00;;;;;;;13.80;51.69;98947.88;4408991;32;33385;-89
2023/11/06 05:01:37;;;;;;;1.92;0.85;;;;;;;13.83;51.58;98960.94;4408349;32;33773;-89
2023/11/06 05:04:05;;;;;;;0.00;0.00;;;;;;;14.08;51.25;98963.53;4409434;32;33371;-90
2023/11/06 05:06:34;;;;;;;0.00;0.00;;;;;;;14.15;51.05;98969.28;4430551;32;32683;-90
2023/11/06 05:09:02;;;;;;;0.00;0.00;;;;;;;14.34;50.20;98971.47;4409430;32;32556;-89
2023/11/06 05:11:30;;;;;;;0.00;0.00;;;;;;;13.95;51.32;98973.31;4403296;32;32915;-92
2023/11/06 05:13:58;;;;;;;0.00;0.00;;;;;;;14.16;50.57;98980.75;4408246;32;34815;-90
2023/11/06 05:16:29;;;;;;;0.00;0.00;;;;;;;14.27;50.39;98981.66;4431048;32;33508;-90
2023/11/06 05:18:58;;;;;;;0.00;0.00;;;;;;;14.14;51.52;98980.00;4411336;32;32175;-90
2023/11/06 05:21:26;;;;;;;0.00;0.00;;;;;;;14.14;51.44;98975.53;4404330;32;32687;-90
2023/11/06 05:23:54;;;;;;;0.00;0.00;;;;;;;14.28;51.34;98971.87;4397393;32;33016;-91
2023/11/06 05:26:21;;;;;;;0.32;0.32;;;;;;;14.28;51.43;98982.50;4411286;32;34136;-90
2023/11/06 05:28:50;;;;;;;0.00;0.00;;;;;;;14.03;51.96;98996.69;4410543;32;33184;-90
2023/11/06 05:31:20;;;;;;;0.00;0.00;;;;;;;14.06;52.54;99009.75;4405816;32;33637;-90
2023/11/06 05:33:51;;;;;;;0.00;0.00;;;;;;;14.37;50.82;99013.72;4403803;32;33933;-91
2023/11/06 05:36:19;;;;;;;0.00;0.00;;;;;;;14.12;52.06;99019.09;4405235;32;32582;-90
2023/11/06 05:38:47;;;;;;;0.00;0.00;;;;;;;13.90;53.48;99020.56;4416233;32;32341;-91
2023/11/06 05:41:14;;;;;;;0.00;0.00;;;;;;;14.16;51.28;99020.56;4423088;32;32706;-90
2023/11/06 05:43:43;;;;;;;0.00;0.00;;;;;;;14.14;50.09;99027.78;4423441;32;33067;-90
2023/11/06 05:46:11;;;;;;;0.00;0.00;;;;;;;14.20;50.85;99022.91;4404272;32;33333;-90
2023/11/06 05:48:39;;;;;;;0.00;0.00;;;;;;;14.03;51.60;99028.53;4410970;32;32898;-89
2023/11/06 05:51:07;;;;;;;0.00;0.00;;;;;;;13.98;51.64;99033.31;4412397;32;33924;-89
2023/11/06 05:53:35;;;;;;;0.00;0.00;;;;;;;14.17;50.71;99048.81;4396348;32;32941;-90
2023/11/06 05:56:03;;;;;;;0.03;0.03;;;;;;;14.01;50.16;99049.88;4421132;32;32708;-90
2023/11/06 05:58:32;;;;;;;0.13;0.13;;;;;;;14.10;50.25;99051.06;4409239;32;32302;-91
2023/11/06 06:01:01;;;;;;;0.00;0.00;;;;;;;14.05;49.93;99050.50;4410577;32;33146;-90
2023/11/06 06:03:30;;;;;;;0.00;0.00;;;;;;;14.01;51.00;99055.19;4423450;32;32900;-89
2023/11/06 06:05:58;;;;;;;0.00;0.00;;;;;;;14.19;49.13;99052.19;4398540;32;32766;-91
2023/11/06 06:08:26;;;;;;;0.00;0.00;;;;;;;14.35;48.90;99055.47;4397289;32;32168;-91
2023/11/06 06:10:54;;;;;;;0.00;0.00;;;;;;;14.27;48.69;99065.78;4415879;32;32800;-91
2023/11/06 06:13:22;;;;;;;0.00;0.00;;;;;;;14.24;49.15;99068.66;4397687;32;32856;-92
2023/11/06 06:15:50;;;;;;;0.00;0.00;;;;;;;14.29;49.04;99069.16;4429399;32;33098;-93
2023/11/06 06:18:20;;;;;;;0.00;0.00;;;;;;;13.84;49.72;99079.37;4411880;32;33639;-93
2023/11/06 06:20:58;;;;;;;0.00;0.00;;;;;;;14.07;49.00;99078.66;4417382;32;33740;-92
2023/11/06 06:23:27;;;;;;;0.00;0.00;;;;;;;14.34;48.40;99086.50;4398490;32;33943;-92
2023/11/06 06:25:55;;;;;;;0.00;0.00;;;;;;;14.38;48.26;99084.44;4407773;32;32914;-91
2023/11/06 06:28:22;;;;;;;0.00;0.00;;;;;;;14.06;50.43;99084.06;4396524;32;33179;-89
2023/11/06 06:30:51;;;;;;;0.00;0.00;;;;;;;14.25;49.59;99096.94;4424198;32;33840;-89
2023/11/06 06:33:18;;;;;;;0.20;0.20;;;;;;;14.32;49.04;99096.38;4399168;32;33715;-89
2023/11/06 06:35:46;;;;;;;0.00;0.00;;;;;;;14.23;48.82;99091.69;4424430;32;32885;-90
2023/11/06 06:38:15;;;;;;;0.28;0.20;;;;;;;14.34;49.08;99099.78;4411644;32;32383;-88
2023/11/06 06:40:43;;;;;;;0.00;0.00;;;;;;;14.47;49.10;99091.78;4424083;32;35029;-87
2023/11/06 06:43:11;;;;;;;0.00;0.00;;;;;;;14.66;48.48;99090.50;4424178;32;34507;-88
2023/11/06 06:45:39;;;;;;;0.00;0.00;;;;;;;14.63;48.58;99101.37;4411069;32;32795;-90
2023/11/06 06:48:06;;;;;;;0.00;0.00;;;;;;;14.63;49.13;99106.69;4410937;32;32942;-90
2023/11/06 06:50:34;;;;;;;0.00;0.00;;;;;;;14.56;49.86;99111.56;4398904;32;33057;-90
2023/11/06 06:53:02;;;;;;;0.00;0.00;;;;;;;14.41;50.58;99118.78;4397942;32;33081;-90
2023/11/06 06:55:30;;;;;;;0.47;0.45;;;;;;;14.69;49.57;99116.84;4398808;32;32737;-90
2023/11/06 06:57:59;;;;;;;0.52;0.30;;;;;;;14.71;48.93;99123.75;4398509;32;32069;-90
2023/11/06 07:00:28;;;;;;;0.08;0.08;;;;;;;14.73;49.72;99127.16;4423933;32;34472;-92
2023/11/06 07:02:56;;;;;;;0.55;0.55;;;;;;;14.89;48.58;99136.69;4412149;32;33444;-89
2023/11/06 07:05:23;;;;;;;0.68;0.35;;;;;;;14.99;48.19;99133.25;4405041;32;33451;-89
2023/11/06 07:07:52;;;;;;;2.97;0.30;;;;;;;14.61;50.42;99149.28;4407983;32;32220;-88
2023/11/06 07:10:19;;;;;;;0.05;0.05;;;;;;;14.73;51.18;99147.56;4398965;32;33741;-88
2023/11/06 07:12:47;;;;;;;0.32;0.32;;;;;;;14.92;50.33;99155.94;4423670;32;32933;-83
2023/11/06 07:15:25;;;;;;;0.03;0.03;;;;;;;15.07;47.81;99164.59;4419667;32;33365;-84
2023/11/06 07:18:00;;;;;;;0.00;0.00;;;;;;;15.13;47.75;99171.28;4433280;32;32807;-84
2023/11/06 07:20:29;;;;;;;0.55;0.28;;;;;;;14.95;48.85;99179.63;4411403;32;33898;-84
2023/11/06 07:22:57;;;;;;;0.00;0.00;;;;;;;15.33;47.31;99181.31;4423728;32;32927;-84
2023/11/06 07:25:25;;;;;;;0.00;0.00;;;;;;;15.42;48.56;99183.31;4417798;32;34152;-83
2023/11/06 07:27:53;;;;;;;0.20;0.20;;;;;;;15.69;46.23;99190.25;4410412;32;32730;-84
2023/11/06 07:30:22;;;;;;;0.52;0.52;;;;;;;15.72;46.87;99198.03;4408392;32;34884;-84
2023/11/06 07:32:51;;;;;;;0.00;0.00;;;;;;;15.75;46.07;99195.13;4411204;32;34069;-84
2023/11/06 07:35:19;;;;;;;0.00;0.00;;;;;;;15.72;47.09;99208.66;4397813;32;34138;-84
2023/11/06 07:37:46;;;;;;;0.37;0.35;;;;;;;16.09;45.33;99210.28;4402931;32;33338;-84
2023/11/06 07:40:15;;;;;;;0.43;0.43;;;;;;;15.92;46.36;99217.81;4420076;32;32836;-84
2023/11/06 07:42:43;;;;;;;0.10;0.10;;;;;;;16.29;46.54;99210.56;4420828;32;33688;-84
2023/11/06 07:45:11;;;;;;;0.00;0.00;;;;;;;16.28;46.55;99219.50;4405466;32;32765;-84
2023/11/06 07:47:39;;;;;;;0.80;0.40;;;;;;;16.24;46.02;99221.56;4422575;32;33320;-84
2023/11/06 07:50:08;;;;;;;0.00;0.00;;;;;;;16.09;44.67;99220.91;4415836;32;32838;-84
2023/11/06 07:52:36;;;;;;;0.10;0.10;;;;;;;16.22;45.13;99220.81;4407780;32;33027;-84
2023/11/06 07:55:05;;;;;;;0.00;0.00;;;;;;;16.53;44.54;99227.31;4416302;32;33707;-84
2023/11/06 07:57:33;;;;;;;0.00;0.00;;;;;;;16.53;45.47;99223.81;4423877;32;32509;-84
2023/11/06 08:00:03;;;;;;;0.25;0.20;;;;;;;16.64;45.02;99231.81;4423276;32;32842;-84
2023/11/06 08:02:37;;;;;;;0.00;0.00;;;;;;;16.34;46.29;99232.38;4406947;32;34110;-84
2023/11/06 08:05:06;;;;;;;0.00;0.00;;;;;;;16.54;47.42;99242.34;4423304;32;33025;-84
2023/11/06 08:07:34;;;;;;;0.37;0.37;;;;;;;16.31;48.30;99257.41;4409671;32;32537;-85
2023/11/06 08:10:03;;;;;;;0.00;0.00;;;;;;;16.17;47.64;99268.25;4431816;32;34715;-84
2023/11/06 08:12:32;;;;;;;0.52;0.52;;;;;;;15.99;46.40;99265.16;4411235;32;34364;-85
2023/11/06 08:14:59;;;;;;;0.22;0.22;;;;;;;16.38;46.70;99263.16;4418741;32;33396;-85
2023/11/06 08:17:27;;;;;;;0.00;0.00;;;;;;;16.41;46.53;99273.56;4395108;32;33744;-84
2023/11/06 08:19:57;;;;;;;0.00;0.00;;;;;;;16.32;46.62;99275.09;4435099;32;33927;-84
2023/11/06 08:22:25;;;;;;;0.00;0.00;;;;;;;16.60;46.11;99275.66;4409754;32;33441;-85
2023/11/06 08:24:52;;;;;;;0.00;0.00;;;;;;;16.87;45.60;99275.38;4405284;32;33095;-84
2023/11/06 08:27:21;;;;;;;0.35;0.35;;;;;;;16.71;45.55;99275.69;4429405;32;33263;-84
2023/11/06 08:29:49;;;;;;;0.00;0.00;;;;;;;16.43;46.33;99276.97;4405014;32;33772;-85
2023/11/06 08:32:18;;;;;;;1.15;0.57;;;;;;;16.86;46.06;99276.34;4435907;32;34271;-84
2023/11/06 08:34:47;;;;;;;0.00;0.00;;;;;;;17.06;45.70;99277.47;4428446;32;33914;-84
2023/11/06 08:37:15;;;;;;;0.68;0.68;;;;;;;17.27;45.44;99282.91;4419196;32;33415;-84
2023/11/06 08:39:44;;;;;;;0.20;0.17;;;;;;;17.15;46.26;99285.59;4417717;32;33068;-84
2023/11/06 08:42:12;;;;;;;0.00;0.00;;;;;;;17.15;44.98;99290.91;4399248;32;34186;-85
2023/11/06 08:44:41;;;;;;;0.00;0.00;;;;;;;17.51;45.01;99288.94;4411227;32;32736;-84
2023/11/06 08:47:09;;;;;;;0.10;0.10;;;;;;;17.43;44.94;99295.88;4418433;32;33781;-84
2023/11/06 08:49:37;;;;;;;0.15;0.10;;;;;;;17.78;44.18;99293.91;4415210;32;33907;-85
2023/11/06 08:52:05;;;;;;;0.00;0.00;;;;;;;17.45;43.97;99300.13;4421881;32;34792;-84
2023/11/06 08:54:37;;;;;;;0.00;0.00;;;;;;;17.82;44.30;99299.84;4411022;32;33469;-84
2023/11/06 08:57:07;;;;;;;0.00;0.00;;;;;;;18.04;42.37;99293.59;4422351;32;32306;-84
2023/11/06 08:59:35;;;;;;;0.00;0.00;;;;;;;18.26;42.97;99298.00;4405693;32;32797;-84
2023/11/06 09:02:02;;;;;;;0.00;0.00;;;;;;;18.25;42.99;99310.53;4409025;32;34055;-88
2023/11/06 09:04:30;;;;;;;0.20;0.20;;;;;;;18.36;41.28;99302.44;4415787;32;34939;-88
2023/11/06 09:06:59;;;;;;;0.00;0.00;;;;;;;18.20;41.70;99310.06;4400971;32;34487;-88
2023/11/06 09:09:27;;;;;;;0.00;0.00;;;;;;;18.30;40.95;99313.66;4408447;32;33605;-88
2023/11/06 09:11:55;;;;;;;0.00;0.00;;;;;;;18.60;40.08;99315.56;4400941;32;33725;-88
2023/11/06 09:14:23;;;;;;;0.00;0.00;;;;;;;18.61;39.44;99340.47;4400031;32;33047;-88
2023/11/06 09:16:50;;;;;;;0.00;0.00;;;;;;;18.45;38.17;99345.44;4404687;32;32660;-88
2023/11/06 09:19:18;;;;;;;8.75;0.43;;;;;;;18.43;38.34;99349.09;4410998;32;34195;-88
2023/11/06 09:21:46;;;;;;;0.17;0.17;;;;;;;18.84;38.77;99351.94;4411150;32;33733;-89
2023/11/06 09:24:14;;;;;;;0.00;0.00;;;;;;;18.51;41.18;99361.78;4410078;32;33991;-88
2023/11/06 09:26:45;;;;;;;0.00;0.00;;;;;;;18.50;41.51;99365.44;4399462;32;33507;-88
2023/11/06 09:29:12;;;;;;;0.28;0.20;;;;;;;18.83;40.73;99366.31;4396335;32;34755;-89
2023/11/06 09:31:40;;;;;;;0.10;0.10;;;;;;;18.65;39.86;99369.50;4421023;32;33036;-88
2023/11/06 09:34:08;;;;;;;0.00;0.00;;;;;;;18.87;40.71;99373.09;4404427;32;34577;-89
2023/11/06 09:36:36;;;;;;;0.20;0.10;;;;;;;18.71;40.60;99370.03;4395964;32;32349;-89
2023/11/06 09:39:06;;;;;;;0.08;0.00;;;;;;;19.12;39.07;99366.50;4402749;32;32874;-89
2023/11/06 09:41:38;;;;;;;0.00;0.00;;;;;;;18.98;40.56;99358.78;4422566;32;34155;-89
2023/11/06 09:44:12;;;;;;;0.00;0.00;;;;;;;18.89;40.11;99381.81;4420530;32;33138;-89
2023/11/06 09:50:02;;;;;;;0.10;0.10;;;;;;;19.64;40.20;99380.72;4415651;32;32436;-89
2023/11/06 09:52:32;;;;;;;0.00;0.00;;;;;;;19.21;40.86;99383.59;4420269;32;33898;-89
2023/11/06 09:55:00;;;;;;;0.32;0.32;;;;;;;18.81;41.84;99385.16;4420761;32;33019;-89
2023/11/06 09:57:28;;;;;;;0.00;0.00;;;;;;;19.51;40.50;99388.09;4415681;32;33080;-89
2023/11/06 09:59:57;;;;;;;0.00;0.00;;;;;;;19.12;41.03;99391.41;4418617;32;33807;-88
2023/11/06 10:02:25;;;;;;;0.00;0.00;;;;;;;19.35;40.63;99383.25;4418755;32;33567;-89
2023/11/06 10:04:54;;;;;;;0.08;0.08;;;;;;;19.05;39.13;99392.09;4423431;32;32675;-89
2023/11/06 10:07:59;;;;;;;0.00;0.00;;;;;;;19.15;39.69;99376.94;4411515;32;33493;-89
2023/11/06 10:10:28;;;;;;;0.60;0.37;;;;;;;19.67;37.72;99388.50;4368399;32;33192;-89
2023/11/06 10:13:06;;;;;;;0.00;0.00;;;;;;;19.62;36.84;99390.75;4403109;32;33237;-89
2023/11/06 10:15:35;;;;;;;0.00;0.00;;;;;;;19.98;35.93;99385.78;4421523;32;34580;-89
2023/11/06 10:18:13;;;;;;;0.00;0.00;;;;;;;19.85;35.56;99391.41;4405374;32;32712;-89
2023/11/06 10:20:48;;;;;;;0.10;0.10;;;;;;;19.86;33.70;99388.56;4424258;32;33543;-89
2023/11/06 10:23:36;;;;;;;0.00;0.00;;;;;;;20.56;34.52;99384.09;4416919;32;33410;-89
2023/11/06 10:26:11;;;;;;;0.10;0.10;;;;;;;20.64;34.95;99380.69;4416538;32;32801;-89
2023/11/06 10:28:39;;;;;;;0.03;0.03;;;;;;;21.12;34.04;99387.84;4437998;32;32342;-89
2023/11/06 10:31:09;;;;;;;0.00;0.00;;;;;;;20.37;34.15;99392.94;4399921;32;32868;-89
2023/11/06 10:33:37;;;;;;;0.20;0.15;;;;;;;20.23;36.11;99390.66;4410747;32;32988;-89
2023/11/06 10:36:15;;;;;;;0.00;0.00;;;;;;;20.38;36.22;99391.09;4424036;32;33705;-89
2023/11/06 10:38:44;;;;;;;0.13;0.13;;;;;;;20.95;34.85;99390.28;4402120;32;33799;-89
2023/11/06 10:41:24;;;;;;;0.00;0.00;;;;;;;20.97;36.37;99390.97;4396648;32;33974;-89
2023/11/06 10:44:01;;;;;;;0.25;0.20;;;;;;;21.15;33.72;99392.91;4416791;32;33952;-89
2023/11/06 10:46:34;;;;;;;0.15;0.15;;;;;;;21.14;34.24;99396.59;4405923;32;33902;-89
2023/11/06 10:49:21;;;;;;;0.10;0.10;;;;;;;20.60;35.22;99401.56;4428457;32;33442;-89
2023/11/06 10:51:50;;;;;;;0.22;0.17;;;;;;;20.48;35.47;99410.75;4409791;32;32309;-89
2023/11/06 10:54:19;;;;;;;0.17;0.17;;;;;;;20.33;36.00;99409.44;4397917;32;32984;-89
2023/11/06 10:56:57;;;;;;;0.10;0.10;;;;;;;20.49;36.38;99403.53;4399751;32;32993;-89
2023/11/06 10:59:31;;;;;;;0.82;0.40;;;;;;;20.18;38.08;99404.47;4409906;32;33486;-89
2023/11/06 11:01:59;;;;;;;1.45;0.37;;;;;;;20.25;37.30;99406.59;4404452;32;32153;-88
2023/11/06 11:04:29;;;;;;;0.62;0.20;;;;;;;20.33;37.10;99410.28;4397661;32;33423;-89
2023/11/06 11:07:01;;;;;;;0.00;0.00;;;;;;;20.36;36.77;99406.44;4412112;32;33566;-89
2023/11/06 11:09:30;;;;;;;0.20;0.20;;;;;;;19.78;38.21;99406.31;4423819;32;31939;-89
2023/11/06 11:11:57;;;;;;;0.13;0.10;;;;;;;19.63;38.90;99406.66;4409672;32;32783;-89
2023/11/06 11:14:25;;;;;;;0.40;0.40;;;;;;;19.82;38.67;99413.09;4424282;32;34430;-89
2023/11/06 11:16:54;;;;;;;0.00;0.00;;;;;;;20.37;36.90;99402.81;4404149;32;34177;-89
2023/11/06 11:19:31;;;;;;;0.25;0.15;;;;;;;19.79;38.11;99403.47;4417208;32;32502;-89
2023/11/06 11:22:12;;;;;;;0.10;0.10;;;;;;;19.64;40.11;99411.03;4421059;32;32886;-89
2023/11/06 11:24:45;;;;;;;0.00;0.00;;;;;;;19.93;41.27;99416.50;4405288;32;34445;-89
2023/11/06 11:27:16;;;;;;;0.10;0.10;;;;;;;20.23;41.55;99412.09;4424619;32;32800;-89
2023/11/06 11:29:53;;;;;;;2.90;0.75;;;;;;;20.37;41.59;99408.19;4420743;32;32601;-89
2023/11/06 11:32:47;;;;;;;1.50;0.93;;;;;;;20.24;40.57;99407.56;4421765;32;33821;-89
2023/11/06 11:35:17;;;;;;;0.20;0.20;;;;;;;20.53;39.92;99404.97;4419557;32;32908;-89
2023/11/06 11:37:59;;;;;;;0.00;0.00;;;;;;;20.34;40.15;99403.91;4409299;32;33409;-89
2023/11/06 11:41:06;;;;;;;0.05;0.05;;;;;;;21.08;38.17;99405.22;4423258;32;32613;-89
2023/11/06 11:43:34;;;;;;;0.00;0.00;;;;;;;21.15;37.67;99393.75;4423078;32;33783;-89
2023/11/06 11:46:02;;;;;;;0.88;0.15;;;;;;;20.79;39.41;99397.19;4414341;32;34309;-89
2023/11/06 11:48:49;;;;;;;0.00;0.00;;;;;;;20.79;38.91;99400.72;4409791;32;33854;-89